MDT,Max TemperatureF,Mean TemperatureF,Min TemperatureF,Max Dew PointF,MeanDew PointF,Min DewpointF,Max Humidity, Mean Humidity, Min Humidity, Max Sea Level PressureIn, Mean Sea Level PressureIn, Min Sea Level PressureIn, Max VisibilityMiles, Mean VisibilityMiles, Min VisibilityMiles, Max Wind SpeedMPH, Mean Wind SpeedMPH, Max Gust SpeedMPH,PrecipitationIn, CloudCover, Events, WindDirDegrees
2012-7-1,80,68,55,45,29,19,49,26,11,30.36,30.32,30.29,10,10,7,20,6,28,0.03,3,Rain,115
2012-7-2,77,66,55,48,36,30,72,37,18,30.41,30.35,30.29,10,10,3,20,6,34,0.09,3,Rain-Thunderstorm,143
2012-7-3,75,63,51,54,42,34,82,51,23,30.42,30.33,30.27,10,10,2,18,5,24,0.24,2,Rain,130
2012-7-4,71,63,55,54,46,39,88,60,31,30.36,30.32,30.28,10,10,7,13,2,23,0.05,4,Rain-Thunderstorm,152
2012-7-5,68,60,51,55,49,43,100,74,52,30.40,30.34,30.29,10,10,3,20,6,26,0.14,7,Rain-Thunderstorm,225
2012-7-6,68,59,50,52,47,39,100,70,35,30.45,30.42,30.37,10,10,10,16,2,32,0.00,6,Rain-Thunderstorm,102
2012-7-7,68,60,51,52,47,43,100,68,46,30.56,30.49,30.44,10,10,7,13,3,22,0.05,7,Rain-Thunderstorm,115
2012-7-8,69,60,51,54,48,45,94,74,40,30.55,30.52,30.49,10,10,4,16,3,25,0.07,5,Rain-Thunderstorm,114
2012-7-9,77,62,48,46,40,28,87,48,17,30.53,30.49,30.43,10,10,10,10,4,18,0.00,1,Thunderstorm,69
2012-7-10,77,64,51,43,39,32,71,41,19,30.53,30.48,30.40,10,10,10,15,4,23,0.00,1,Thunderstorm,68
2012-7-11,78,66,53,45,38,30,62,38,18,30.52,30.47,30.39,10,10,7,14,4,24,0.03,2,Rain,246
2012-7-12,80,66,53,43,39,32,62,39,17,30.49,30.45,30.40,10,10,10,20,3,31,0.00,2,Rain-Thunderstorm,126
2012-7-13,75,63,51,54,44,36,100,60,25,30.53,30.49,30.45,10,10,2,13,4,18,0.20,4,Rain-Thunderstorm,103
2012-7-14,71,61,51,52,47,36,94,68,30,30.48,30.45,30.41,10,10,1,12,3,18,0.27,5,Rain-Thunderstorm,119
2012-7-15,66,58,50,52,46,41,88,66,42,30.48,30.42,30.37,10,10,5,23,4,32,0.05,6,Rain-Thunderstorm,116
2012-7-16,62,56,51,52,47,45,94,72,52,30.40,30.36,30.32,10,10,4,18,2,23,0.02,5,Rain-Thunderstorm,188
2012-7-17,73,60,48,46,41,34,87,52,25,30.40,30.37,30.32,10,10,10,14,5,22,0.00,2,Thunderstorm,225
2012-7-18,73,62,50,43,39,34,67,43,23,30.49,30.43,30.39,10,10,10,12,4,16,0.00,2,Rain-Thunderstorm,116
2012-7-19,77,65,53,55,46,37,94,58,26,30.57,30.51,30.48,10,10,4,14,5,20,0.14,4,Rain-Thunderstorm,152
2012-7-20,78,66,53,52,45,37,88,52,25,30.58,30.53,30.47,10,10,10,16,5,25,0.03,3,Rain-Thunderstorm,144
2012-7-21,77,65,53,54,46,37,82,60,24,30.60,30.54,30.50,10,10,1,18,7,38,0.42,4,Rain-Thunderstorm,118
2012-7-22,71,61,51,54,46,41,94,61,33,30.56,30.53,30.48,10,10,5,13,5,20,0.16,3,Rain-Thunderstorm,142
2012-7-23,73,63,53,54,48,41,88,68,33,30.53,30.49,30.43,10,10,2,22,5,29,0.18,4,Rain-Thunderstorm,123
2012-7-24,64,57,50,55,49,43,100,78,45,30.48,30.42,30.38,10,10,7,12,5,22,0.05,5,Rain-Thunderstorm,137
2012-7-25,69,58,48,52,46,39,100,65,33,30.41,30.38,30.35,10,10,10,17,4,25,0.00,2,Thunderstorm,209
2012-7-26,78,64,51,45,39,32,72,44,20,30.45,30.41,30.36,10,10,7,13,5,23,0.00,2,Thunderstorm,132
2012-7-27,71,62,53,54,44,37,100,56,29,30.57,30.49,30.43,10,9,0,16,4,31,0.20,5,Rain-Thunderstorm,114
2012-7-28,68,60,51,54,51,46,100,74,46,30.58,30.53,30.47,10,10,2,21,5,28,0.11,6,Rain-Thunderstorm,173
2012-7-29,69,62,55,55,51,45,94,72,43,30.54,30.51,30.46,10,10,7,13,4,17,0.14,6,Rain-Thunderstorm,121
2012-7-30,73,62,51,54,49,45,94,65,36,30.53,30.49,30.44,10,10,10,9,4,,0.00,4,Rain-Thunderstorm,161
2012-7-31,71,61,51,54,49,45,94,71,38,30.59,30.51,30.45,10,10,1,21,4,34,0.79,3,Rain-Thunderstorm,145